createdAt,value
2023-03-31T00:02:03.886Z,14.95
2023-03-31T00:04:42.913Z,15.00
2023-03-31T00:07:28.519Z,14.99
2023-03-31T00:10:17.776Z,15.02
2023-03-31T00:13:08.097Z,15.04
2023-03-31T00:15:54.456Z,15.02
2023-03-31T00:18:32.705Z,15.06
2023-03-31T00:21:36.289Z,15.06
2023-03-31T00:24:17.961Z,15.07
2023-03-31T00:26:58.114Z,15.07
2023-03-31T00:29:46.118Z,14.97
2023-03-31T00:32:26.799Z,14.79
2023-03-31T00:35:03.860Z,14.69
2023-03-31T00:37:39.532Z,14.65
2023-03-31T00:40:13.871Z,14.73
2023-03-31T00:42:52.349Z,14.65
2023-03-31T00:45:37.491Z,14.74
2023-03-31T00:48:25.648Z,14.66
2023-03-31T00:51:05.310Z,14.67
2023-03-31T00:53:43.959Z,14.63
2023-03-31T00:56:26.800Z,14.63
2023-03-31T00:59:09.827Z,14.66
2023-03-31T01:01:51.140Z,14.59
2023-03-31T01:04:29.410Z,14.63
2023-03-31T01:07:12.612Z,14.66
2023-03-31T01:09:58.254Z,14.57
2023-03-31T01:12:41.634Z,14.59
2023-03-31T01:15:18.488Z,14.59
2023-03-31T01:18:02.370Z,14.50
2023-03-31T01:21:33.389Z,14.44
2023-03-31T01:25:00.159Z,14.47
2023-03-31T01:28:30.308Z,14.43
2023-03-31T01:31:36.408Z,14.36
2023-03-31T01:34:42.812Z,14.25
2023-03-31T01:37:50.114Z,14.23
2023-03-31T01:40:59.087Z,14.26
2023-03-31T01:43:41.308Z,14.28
2023-03-31T01:46:31.257Z,14.23
2023-03-31T01:49:07.800Z,14.23
2023-03-31T01:52:01.368Z,14.25
2023-03-31T01:54:43.884Z,14.22
2023-03-31T01:57:25.822Z,14.18
2023-03-31T02:00:09.058Z,14.12
2023-03-31T02:03:02.498Z,14.29
2023-03-31T02:05:40.695Z,14.16
2023-03-31T02:08:28.434Z,14.29
2023-03-31T02:11:07.832Z,14.31
2023-03-31T02:13:56.123Z,14.25
2023-03-31T02:16:43.525Z,14.13
2023-03-31T02:19:28.986Z,14.24
2023-03-31T02:22:22.294Z,14.17
2023-03-31T02:25:06.966Z,14.09
2023-03-31T02:27:44.874Z,14.12
2023-03-31T02:30:23.150Z,14.06
2023-03-31T02:33:02.673Z,13.94
2023-03-31T02:35:43.673Z,14.01
2023-03-31T02:38:29.472Z,13.99
2023-03-31T02:41:13.183Z,14.00
2023-03-31T02:44:02.494Z,13.90
2023-03-31T02:46:46.659Z,13.83
2023-03-31T02:49:39.428Z,13.81
2023-03-31T02:52:47.236Z,13.75
2023-03-31T02:56:08.833Z,13.65
2023-03-31T02:58:58.973Z,13.33
2023-03-31T03:01:59.372Z,13.47
2023-03-31T03:04:58.151Z,13.33
2023-03-31T03:07:57.243Z,13.33
2023-03-31T03:11:11.096Z,13.37
2023-03-31T03:13:53.572Z,13.30
2023-03-31T03:16:34.567Z,13.36
2023-03-31T03:19:27.921Z,13.41
2023-03-31T03:22:10.668Z,13.47
2023-03-31T03:25:04.227Z,13.49
2023-03-31T03:27:40.244Z,13.50
2023-03-31T03:30:18.064Z,13.41
2023-03-31T03:32:52.381Z,13.47
2023-03-31T03:35:38.844Z,13.45
2023-03-31T03:38:16.600Z,13.40
2023-03-31T03:41:10.627Z,13.23
2023-03-31T03:43:42.635Z,13.46
2023-03-31T03:46:20.321Z,13.44
2023-03-31T03:49:00.908Z,13.48
2023-03-31T03:51:50.929Z,13.42
2023-03-31T03:54:57.726Z,13.33
2023-03-31T03:57:37.869Z,13.28
2023-03-31T04:03:03.468Z,13.23
2023-03-31T04:05:36.932Z,13.10
2023-03-31T04:08:28.411Z,13.15
2023-03-31T04:11:02.218Z,13.14
2023-03-31T04:13:38.578Z,13.18
2023-03-31T04:16:18.624Z,13.37
2023-03-31T04:18:59.166Z,13.36
2023-03-31T04:21:35.951Z,13.44
2023-03-31T04:24:34.527Z,13.47
2023-03-31T04:27:29.276Z,13.56
2023-03-31T04:30:12.962Z,13.58
2023-03-31T04:32:54.191Z,13.69
2023-03-31T04:38:48.318Z,13.80
2023-03-31T04:41:34.427Z,13.81
2023-03-31T04:44:12.778Z,13.78
2023-03-31T04:46:52.178Z,13.85
2023-03-31T04:49:38.945Z,13.86
2023-03-31T04:52:25.068Z,13.85
2023-03-31T04:55:21.984Z,13.84
2023-03-31T04:58:03.709Z,13.83
2023-03-31T05:00:50.889Z,13.79
2023-03-31T05:03:29.755Z,13.85
2023-03-31T05:06:18.206Z,13.92
2023-03-31T05:08:51.979Z,13.95
2023-03-31T05:11:35.220Z,13.95
2023-03-31T05:14:21.148Z,13.97
2023-03-31T05:17:06.051Z,13.99
2023-03-31T05:22:29.557Z,13.98
2023-03-31T05:25:20.797Z,14.00
2023-03-31T05:28:06.771Z,14.02
2023-03-31T05:30:50.810Z,14.02
2023-03-31T05:33:43.562Z,14.09
2023-03-31T05:36:32.220Z,14.11
2023-03-31T05:39:19.939Z,14.15
2023-03-31T05:42:06.161Z,14.20
2023-03-31T05:44:50.740Z,14.25
2023-03-31T05:47:48.340Z,14.24
2023-03-31T05:50:24.877Z,14.29
2023-03-31T05:53:07.416Z,14.25
2023-03-31T05:55:46.035Z,14.34
2023-03-31T05:58:23.091Z,14.20
2023-03-31T06:01:10.161Z,14.34
2023-03-31T06:04:00.146Z,14.37
2023-03-31T06:06:41.715Z,14.39
2023-03-31T06:09:22.087Z,14.46
2023-03-31T06:11:59.008Z,14.52
2023-03-31T06:14:38.244Z,14.56
2023-03-31T06:17:13.980Z,14.58
2023-03-31T06:19:55.165Z,14.58
2023-03-31T06:22:37.386Z,14.65
2023-03-31T06:25:25.077Z,14.68
2023-03-31T06:28:06.018Z,14.74
2023-03-31T06:30:55.218Z,14.80
2023-03-31T06:33:43.913Z,14.77
2023-03-31T06:36:28.015Z,14.85
2023-03-31T06:39:09.710Z,14.96
2023-03-31T06:41:54.673Z,14.99
2023-03-31T06:44:40.606Z,15.06
2023-03-31T06:47:22.437Z,15.15
2023-03-31T06:49:55.011Z,15.20
2023-03-31T06:52:38.884Z,15.27
2023-03-31T06:55:28.996Z,15.29
2023-03-31T06:58:05.362Z,15.30
2023-03-31T07:00:57.055Z,15.26
2023-03-31T07:03:34.742Z,15.32
2023-03-31T07:06:16.435Z,15.56
2023-03-31T07:08:59.003Z,15.69
2023-03-31T07:11:51.140Z,15.55
2023-03-31T07:14:35.859Z,15.83
2023-03-31T07:17:18.864Z,15.94
2023-03-31T07:20:05.835Z,16.03
2023-03-31T07:22:45.574Z,16.04
2023-03-31T07:25:36.484Z,15.90
2023-03-31T07:28:22.700Z,15.95
2023-03-31T07:31:22.686Z,15.91
2023-03-31T07:33:59.740Z,15.83
2023-03-31T07:36:33.605Z,15.73
2023-03-31T07:39:16.374Z,15.80
2023-03-31T07:41:57.769Z,15.93
2023-03-31T07:44:36.675Z,16.01
2023-03-31T07:47:18.810Z,16.10
2023-03-31T07:50:02.482Z,16.39
2023-03-31T07:52:49.822Z,16.41
2023-03-31T07:55:27.997Z,16.57
2023-03-31T07:58:12.285Z,16.68
2023-03-31T08:00:52.080Z,16.77
2023-03-31T08:03:37.122Z,16.89
2023-03-31T08:06:19.802Z,16.88
2023-03-31T08:09:16.557Z,17.01
2023-03-31T08:11:52.061Z,17.05
2023-03-31T08:14:41.601Z,17.06
2023-03-31T08:17:29.992Z,17.16
2023-03-31T08:20:13.452Z,17.25
2023-03-31T08:22:56.873Z,17.37
2023-03-31T08:28:32.564Z,17.38
2023-03-31T08:31:29.521Z,17.57
2023-03-31T08:34:14.476Z,17.75
2023-03-31T08:37:01.102Z,17.75
2023-03-31T08:39:50.767Z,17.66
2023-03-31T08:42:45.222Z,17.76
2023-03-31T08:45:28.384Z,17.70
2023-03-31T08:48:16.268Z,17.61
2023-03-31T08:51:08.803Z,17.68
2023-03-31T08:53:49.177Z,17.82
2023-03-31T08:56:35.709Z,17.87
2023-03-31T08:59:33.109Z,17.73
2023-03-31T09:02:20.100Z,17.84
2023-03-31T09:05:24.547Z,17.98
2023-03-31T09:08:20.816Z,18.01
2023-03-31T09:11:12.772Z,18.08
2023-03-31T09:14:25.981Z,18.13
2023-03-31T09:17:17.364Z,18.26
2023-03-31T09:23:02.968Z,18.30
2023-03-31T09:25:45.502Z,18.37
2023-03-31T09:28:33.600Z,18.46
2023-03-31T09:31:20.218Z,18.55
2023-03-31T09:34:18.201Z,18.69
2023-03-31T09:37:07.764Z,18.68
2023-03-31T09:39:44.781Z,18.90
2023-03-31T09:42:21.205Z,19.02
2023-03-31T09:45:00.568Z,19.03
2023-03-31T09:47:45.195Z,19.09
2023-03-31T09:50:32.249Z,19.01
2023-03-31T09:53:25.471Z,19.10
2023-03-31T09:56:16.544Z,19.25
2023-03-31T09:58:56.902Z,19.28
2023-03-31T10:01:34.985Z,19.39
2023-03-31T10:04:26.420Z,19.45
2023-03-31T10:07:11.850Z,19.50
2023-03-31T10:09:50.994Z,19.54
2023-03-31T10:12:38.298Z,19.61
2023-03-31T10:15:35.625Z,19.75
2023-03-31T10:18:34.623Z,19.79
2023-03-31T10:21:31.883Z,19.77
2023-03-31T10:24:13.086Z,19.86
2023-03-31T10:26:52.979Z,19.95
2023-03-31T10:29:44.939Z,19.97
2023-03-31T10:32:33.546Z,19.98
2023-03-31T10:35:13.706Z,19.98
2023-03-31T10:38:04.684Z,19.93
2023-03-31T10:40:59.727Z,19.98
2023-03-31T10:43:45.551Z,20.04
2023-03-31T10:46:27.950Z,20.20
2023-03-31T10:49:03.621Z,20.28
2023-03-31T10:51:59.082Z,20.31
2023-03-31T10:54:45.064Z,20.31
2023-03-31T10:57:26.610Z,20.44
2023-03-31T11:00:33.023Z,20.45
2023-03-31T11:03:40.484Z,20.50
2023-03-31T11:06:32.141Z,20.62
2023-03-31T11:09:24.511Z,20.70
2023-03-31T11:12:16.296Z,20.81
2023-03-31T11:15:14.555Z,20.69
2023-03-31T11:18:23.071Z,20.63
2023-03-31T11:21:22.044Z,20.56
2023-03-31T11:24:17.573Z,20.48
2023-03-31T11:27:08.071Z,20.63
2023-03-31T11:29:53.088Z,20.78
2023-03-31T11:33:00.110Z,20.65
2023-03-31T11:36:14.402Z,20.84
2023-03-31T11:39:11.749Z,20.82
2023-03-31T11:41:57.375Z,20.92
2023-03-31T11:44:40.801Z,21.07
2023-03-31T11:47:33.326Z,21.26
2023-03-31T11:50:14.591Z,21.22
2023-03-31T11:53:09.714Z,21.15
2023-03-31T11:55:53.491Z,21.30
2023-03-31T11:58:35.277Z,21.42
2023-03-31T12:01:28.018Z,21.49
2023-03-31T12:04:16.513Z,21.60
2023-03-31T12:06:54.479Z,21.75
2023-03-31T12:09:52.313Z,21.78
2023-03-31T12:12:50.996Z,21.88
2023-03-31T12:15:35.857Z,21.99
2023-03-31T12:18:27.652Z,21.91
2023-03-31T12:21:14.794Z,21.98
2023-03-31T12:24:00.506Z,21.91
2023-03-31T12:27:04.298Z,22.00
2023-03-31T12:29:54.901Z,21.82
2023-03-31T12:32:38.936Z,22.13
2023-03-31T12:35:24.327Z,22.09
2023-03-31T12:38:20.228Z,21.97
2023-03-31T12:41:26.443Z,22.05
2023-03-31T12:44:30.589Z,22.02
2023-03-31T12:47:27.133Z,22.00
2023-03-31T12:50:35.153Z,22.01
2023-03-31T12:53:29.143Z,22.10
2023-03-31T12:56:02.923Z,21.67
2023-03-31T12:58:53.797Z,21.89
2023-03-31T13:01:42.573Z,21.85
2023-03-31T13:04:34.964Z,21.68
2023-03-31T13:07:27.884Z,21.97
2023-03-31T13:10:05.791Z,21.82
2023-03-31T13:12:46.447Z,21.92
2023-03-31T13:15:37.314Z,22.00
2023-03-31T13:18:31.584Z,22.27
2023-03-31T13:21:13.515Z,22.50
2023-03-31T13:24:03.834Z,22.75
2023-03-31T13:26:58.500Z,23.14
2023-03-31T13:30:02.441Z,23.32
2023-03-31T13:32:42.680Z,23.42
2023-03-31T13:35:33.000Z,23.60
2023-03-31T13:38:21.187Z,23.75
2023-03-31T13:41:15.038Z,23.97
2023-03-31T13:44:23.333Z,24.03
2023-03-31T13:47:34.155Z,23.90
2023-03-31T13:50:47.229Z,23.77
2023-03-31T13:53:41.637Z,23.75
2023-03-31T13:56:56.164Z,23.81
2023-03-31T14:00:13.499Z,23.91
2023-03-31T14:03:19.880Z,24.03
2023-03-31T14:06:13.619Z,24.18
2023-03-31T14:08:59.652Z,24.38
2023-03-31T14:11:45.760Z,24.48
2023-03-31T14:14:18.513Z,24.47
2023-03-31T14:17:09.173Z,24.52
2023-03-31T14:20:44.453Z,24.61
2023-03-31T14:23:40.081Z,24.68
2023-03-31T14:26:25.726Z,24.84
2023-03-31T14:29:13.154Z,24.99
2023-03-31T14:31:58.021Z,25.06
2023-03-31T14:34:57.141Z,25.18
2023-03-31T14:37:37.119Z,25.25
2023-03-31T14:40:31.195Z,25.23
2023-03-31T14:43:32.635Z,25.06
2023-03-31T14:46:23.062Z,24.80
2023-03-31T14:49:03.717Z,24.68
2023-03-31T14:51:51.156Z,24.73
2023-03-31T14:54:28.601Z,24.71
2023-03-31T14:57:08.016Z,24.71
2023-03-31T14:59:46.377Z,24.69
2023-03-31T15:02:25.882Z,24.48
2023-03-31T15:05:04.446Z,24.21
2023-03-31T15:07:48.841Z,24.16
2023-03-31T15:10:28.341Z,23.97
2023-03-31T15:13:14.943Z,23.77
2023-03-31T15:15:50.589Z,23.59
2023-03-31T15:18:26.220Z,23.37
2023-03-31T15:21:03.695Z,23.36
2023-03-31T15:23:53.509Z,23.25
2023-03-31T15:26:42.140Z,23.17
2023-03-31T15:29:33.755Z,23.10
2023-03-31T15:32:16.161Z,23.07
2023-03-31T15:34:55.476Z,23.00
2023-03-31T15:37:37.173Z,22.86
2023-03-31T15:40:19.992Z,22.89
2023-03-31T15:43:25.965Z,22.79
2023-03-31T15:46:00.598Z,22.69
2023-03-31T15:48:54.151Z,22.67
2023-03-31T15:51:42.739Z,22.57
2023-03-31T15:54:37.813Z,22.58
2023-03-31T15:57:13.185Z,22.55
2023-03-31T16:00:03.966Z,22.41
2023-03-31T16:03:15.501Z,22.54
2023-03-31T16:06:04.958Z,22.53
2023-03-31T16:09:05.266Z,22.55
2023-03-31T16:11:47.804Z,22.56
2023-03-31T16:14:50.103Z,22.41
2023-03-31T16:17:37.317Z,22.56
2023-03-31T16:20:30.065Z,22.43
2023-03-31T16:23:17.981Z,22.48
2023-03-31T16:26:25.812Z,22.39
2023-03-31T16:29:09.401Z,22.41
2023-03-31T16:31:53.363Z,22.39
2023-03-31T16:34:37.996Z,22.40
2023-03-31T16:37:25.204Z,22.34
2023-03-31T16:40:07.201Z,22.33
2023-03-31T16:42:40.470Z,22.24
2023-03-31T16:45:31.777Z,22.13
2023-03-31T16:48:26.027Z,22.00
2023-03-31T16:51:06.150Z,21.77
2023-03-31T16:54:10.228Z,21.71
2023-03-31T16:56:50.031Z,21.64
2023-03-31T16:59:33.104Z,21.55
2023-03-31T17:02:11.700Z,21.48
2023-03-31T17:04:56.602Z,21.37
2023-03-31T17:07:38.426Z,21.32
2023-03-31T17:10:26.567Z,21.24
2023-03-31T17:13:13.234Z,21.18
2023-03-31T17:16:13.502Z,21.15
2023-03-31T17:18:56.678Z,21.08
2023-03-31T17:21:38.934Z,21.03
2023-03-31T17:24:15.346Z,21.01
2023-03-31T17:26:55.925Z,20.90
2023-03-31T17:29:35.606Z,20.94
2023-03-31T17:32:17.792Z,20.90
2023-03-31T17:34:57.491Z,20.87
2023-03-31T17:37:40.909Z,20.54
2023-03-31T17:40:22.528Z,20.79
2023-03-31T17:43:01.137Z,20.78
2023-03-31T17:45:40.114Z,20.76
2023-03-31T17:48:23.435Z,20.61
2023-03-31T17:51:04.621Z,20.70
2023-03-31T17:53:56.440Z,20.68
2023-03-31T17:56:40.189Z,20.65
2023-03-31T17:59:24.956Z,20.62
2023-03-31T18:02:17.359Z,20.58
2023-03-31T18:04:58.402Z,20.46
2023-03-31T18:07:40.804Z,20.51
2023-03-31T18:10:17.492Z,20.46
2023-03-31T18:13:16.482Z,20.31
2023-03-31T18:16:03.910Z,20.25
2023-03-31T18:18:45.474Z,20.34
2023-03-31T18:21:32.106Z,20.28
2023-03-31T18:24:19.343Z,20.20
2023-03-31T18:26:57.843Z,20.14
2023-03-31T18:29:29.788Z,20.09
2023-03-31T18:32:26.998Z,20.05
2023-03-31T18:35:17.756Z,20.01
2023-03-31T18:38:04.274Z,19.99
2023-03-31T18:40:53.748Z,19.95
2023-03-31T18:43:34.028Z,19.88
2023-03-31T18:46:12.449Z,19.87
2023-03-31T18:48:59.789Z,19.87
2023-03-31T18:51:34.876Z,19.86
2023-03-31T18:54:12.043Z,19.84
2023-03-31T18:56:58.431Z,19.78
2023-03-31T18:59:41.827Z,19.79
2023-03-31T19:02:19.582Z,19.72
2023-03-31T19:05:03.505Z,19.72
2023-03-31T19:07:52.416Z,19.68
2023-03-31T19:10:37.898Z,19.61
2023-03-31T19:13:25.962Z,19.55
2023-03-31T19:16:02.441Z,19.47
2023-03-31T19:18:46.499Z,19.44
2023-03-31T19:21:36.608Z,19.47
2023-03-31T19:24:15.778Z,19.28
2023-03-31T19:27:01.687Z,19.23
2023-03-31T19:29:44.489Z,19.22
2023-03-31T19:32:18.697Z,19.11
2023-03-31T19:34:55.178Z,18.95
2023-03-31T19:37:35.308Z,19.02
2023-03-31T19:40:32.748Z,18.95
2023-03-31T19:43:10.599Z,18.84
2023-03-31T19:45:56.109Z,18.78
2023-03-31T19:48:40.212Z,18.51
2023-03-31T19:51:20.036Z,18.69
2023-03-31T19:53:58.427Z,18.66
2023-03-31T19:56:43.513Z,18.55
2023-03-31T19:59:33.208Z,18.42
2023-03-31T20:02:16.518Z,18.25
2023-03-31T20:04:52.498Z,18.10
2023-03-31T20:07:37.699Z,18.23
2023-03-31T20:10:21.870Z,18.23
2023-03-31T20:13:11.341Z,18.14
2023-03-31T20:15:51.032Z,18.01
2023-03-31T20:18:39.409Z,18.01
2023-03-31T20:21:16.139Z,17.98
2023-03-31T20:23:53.429Z,17.93
2023-03-31T20:26:36.707Z,17.97
2023-03-31T20:29:28.935Z,17.95
2023-03-31T20:32:09.726Z,17.74
2023-03-31T20:34:45.483Z,17.67
2023-03-31T20:37:21.258Z,17.51
2023-03-31T20:40:06.404Z,17.57
2023-03-31T20:42:44.139Z,17.56
2023-03-31T20:45:26.652Z,17.68
2023-03-31T20:48:02.446Z,17.73
2023-03-31T20:50:41.711Z,17.78
2023-03-31T20:53:19.651Z,17.81
2023-03-31T20:55:55.132Z,17.79
2023-03-31T20:58:33.296Z,17.61
2023-03-31T21:01:17.342Z,17.29
2023-03-31T21:04:02.023Z,16.96
2023-03-31T21:06:49.507Z,16.91
2023-03-31T21:09:46.199Z,16.85
2023-03-31T21:12:24.979Z,16.77
2023-03-31T21:15:12.602Z,16.58
2023-03-31T21:17:48.453Z,16.49
2023-03-31T21:20:32.002Z,16.38
2023-03-31T21:23:15.695Z,16.05
2023-03-31T21:26:00.678Z,16.10
2023-03-31T21:28:38.009Z,16.16
2023-03-31T21:31:28.795Z,16.19
2023-03-31T21:34:10.291Z,16.21
2023-03-31T21:36:46.680Z,16.26
2023-03-31T21:39:25.901Z,16.30
2023-03-31T21:42:01.701Z,16.40
2023-03-31T21:44:42.570Z,16.25
2023-03-31T21:47:29.029Z,16.24
2023-03-31T21:50:04.337Z,16.26
2023-03-31T21:52:51.422Z,16.21
2023-03-31T21:55:32.683Z,16.25
2023-03-31T21:58:10.215Z,16.13
2023-03-31T22:00:50.773Z,16.13
2023-03-31T22:03:36.909Z,16.02
2023-03-31T22:06:19.580Z,16.00
2023-03-31T22:08:57.230Z,15.96
2023-03-31T22:11:31.673Z,15.92
2023-03-31T22:14:17.379Z,15.95
2023-03-31T22:16:55.828Z,15.97
2023-03-31T22:19:39.145Z,16.01
2023-03-31T22:22:19.826Z,16.07
2023-03-31T22:24:57.605Z,16.11
2023-03-31T22:27:40.669Z,16.11
2023-03-31T22:30:23.797Z,16.14
2023-03-31T22:33:02.997Z,16.16
2023-03-31T22:35:45.468Z,16.14
2023-03-31T22:38:21.044Z,16.21
2023-03-31T22:40:58.716Z,16.32
2023-03-31T22:43:36.536Z,16.46
2023-03-31T22:46:12.503Z,16.44
2023-03-31T22:49:09.667Z,16.45
2023-03-31T22:51:59.652Z,16.35
2023-03-31T22:54:34.727Z,16.41
2023-03-31T22:57:13.262Z,16.34
2023-03-31T22:59:51.558Z,16.26
2023-03-31T23:02:31.400Z,16.24
2023-03-31T23:05:09.955Z,16.08
2023-03-31T23:07:53.401Z,16.27
2023-03-31T23:10:45.721Z,16.27
2023-03-31T23:13:39.006Z,16.39
2023-03-31T23:16:26.269Z,16.35
2023-03-31T23:19:01.784Z,16.11
2023-03-31T23:21:41.163Z,16.21
2023-03-31T23:24:22.903Z,16.12
2023-03-31T23:27:04.276Z,16.17
2023-03-31T23:29:38.865Z,16.11
2023-03-31T23:32:15.917Z,16.01
2023-03-31T23:34:57.489Z,16.05
2023-03-31T23:37:33.949Z,16.03
2023-03-31T23:40:14.003Z,16.06
2023-03-31T23:42:54.120Z,15.96
2023-03-31T23:45:33.068Z,15.95
2023-03-31T23:48:17.298Z,15.94
2023-03-31T23:50:58.303Z,15.87
2023-03-31T23:53:40.325Z,15.83
2023-03-31T23:56:20.959Z,15.80
2023-03-31T23:59:04.244Z,15.78
